Time;durP1;ratioP1;P1;durP2;ratioP2;P2;SDS_P1;SDS_P2;PMS_P1;PMS_P2;Temp;Humidity;BMP_temperature;BMP_pressure;BME280_temperature;BME280_humidity;BME280_pressure;Samples;Min_cycle;Max_cycle;Signal;HPM_P1;HPM_P2
2023/05/20 00:01:56;;;;;;;;;16.00;13.33;;;;;14.38;62.42;102044.03;5033997;28;45293;-63
2023/05/20 00:04:22;;;;;;;;;14.33;10.00;;;;;14.35;63.17;102040.53;5033928;28;45535;-69
2023/05/20 00:06:47;;;;;;;;;14.33;13.00;;;;;14.31;63.38;102037.09;5033508;28;45370;-69
2023/05/20 00:09:12;;;;;;;;;20.33;13.33;;;;;14.34;62.97;102038.81;5033759;28;45245;-68
2023/05/20 00:11:38;;;;;;;;;16.33;14.67;;;;;14.25;63.39;102027.47;5034170;28;45480;-68
2023/05/20 00:14:03;;;;;;;;;16.00;16.00;;;;;14.31;63.74;102036.22;5033537;28;46317;-68
2023/05/20 00:16:28;;;;;;;;;18.67;15.00;;;;;14.33;63.95;102042.34;5033988;28;45474;-68
2023/05/20 00:18:55;;;;;;;;;13.67;10.67;;;;;14.26;63.67;102031.88;5033750;28;45287;-68
2023/05/20 00:21:20;;;;;;;;;15.67;13.67;;;;;14.28;63.95;102035.34;5034037;28;45426;-68
2023/05/20 00:23:46;;;;;;;;;20.67;13.00;;;;;14.29;63.98;102041.56;5033527;28;46254;-68
2023/05/20 00:26:11;;;;;;;;;26.33;19.00;;;;;14.22;64.40;102029.31;5033365;28;45437;-68
2023/05/20 00:28:36;;;;;;;;;18.67;15.67;;;;;14.16;64.55;102014.41;5033516;28;45392;-68
2023/05/20 00:31:02;;;;;;;;;21.33;16.33;;;;;14.12;64.99;102017.13;5033927;28;45331;-68
2023/05/20 00:33:27;;;;;;;;;20.33;17.67;;;;;14.20;65.12;102028.44;5033380;28;47111;-68
2023/05/20 00:35:52;;;;;;;;;18.33;15.33;;;;;14.12;65.29;102015.34;5033457;28;45405;-68
2023/05/20 00:38:18;;;;;;;;;17.00;14.00;;;;;14.06;65.19;102013.66;5033526;28;45440;-68
2023/05/20 00:40:43;;;;;;;;;19.00;16.00;;;;;14.09;65.64;102018.06;5033635;28;45183;-68
2023/05/20 00:43:08;;;;;;;;;21.00;17.00;;;;;14.15;65.64;102027.66;5032929;28;46493;-68
2023/05/20 00:45:34;;;;;;;;;18.33;15.00;;;;;14.09;66.00;102018.06;5033181;28;45406;-68
2023/05/20 00:48:02;;;;;;;;;20.00;19.00;;;;;14.09;65.87;102021.56;5033517;28;45207;-68
2023/05/20 00:50:28;;;;;;;;;18.33;17.00;;;;;14.08;66.10;102022.44;5033384;28;45431;-68
2023/05/20 00:52:54;;;;;;;;;19.67;14.00;;;;;14.07;66.60;102020.72;5034359;27;45428;-68
2023/05/20 00:55:20;;;;;;;;;23.00;19.00;;;;;13.98;66.75;101996.16;5032962;28;45277;-68
2023/05/20 00:57:46;;;;;;;;;25.67;22.67;;;;;14.01;66.82;101996.09;5034108;28;45357;-68
2023/05/20 01:00:13;;;;;;;;;23.00;18.67;;;;;14.07;66.63;102014.53;5036541;28;45447;-68
2023/05/20 01:02:38;;;;;;;;;20.33;18.67;;;;;14.02;67.26;102004.03;5036091;28;46050;-68
2023/05/20 01:05:04;;;;;;;;;18.33;15.67;;;;;14.01;67.38;101996.97;5036403;28;45419;-68
2023/05/20 01:07:30;;;;;;;;;21.00;17.67;;;;;14.02;67.65;101995.22;5036598;28;45150;-68
2023/05/20 01:09:55;;;;;;;;;25.67;22.00;;;;;14.04;67.79;102004.00;5036631;28;45220;-68
2023/05/20 01:12:38;;;;;;;;;20.33;20.33;;;;;14.02;67.94;102001.38;5035999;28;46331;-68
2023/05/20 01:15:04;;;;;;;;;25.33;20.67;;;;;14.01;67.81;101999.63;5035909;28;45455;-68
2023/05/20 01:17:31;;;;;;;;;25.67;22.33;;;;;13.96;68.77;101996.19;5036330;28;45222;-68
2023/05/20 01:19:58;;;;;;;;;33.33;26.67;;;;;13.96;68.66;102003.28;5036297;28;45276;-68
2023/05/20 01:22:28;;;;;;;;;23.67;22.67;;;;;13.90;68.59;101993.66;5035884;28;47491;-68
2023/05/20 01:24:53;;;;;;;;;23.33;21.00;;;;;13.93;68.88;102001.53;5035993;28;45299;-68
2023/05/20 01:27:21;;;;;;;;;28.00;23.67;;;;;13.92;68.69;102000.66;5035985;28;45539;-68
2023/05/20 01:29:49;;;;;;;;;29.33;22.00;;;;;13.90;69.00;101999.81;5036105;28;45425;-68
2023/05/20 01:32:21;;;;;;;;;30.33;25.00;;;;;13.86;68.79;101990.16;5035691;28;46528;-68
2023/05/20 01:34:49;;;;;;;;;28.00;24.00;;;;;13.88;69.30;101992.78;5035690;28;45203;-68
2023/05/20 01:37:16;;;;;;;;;24.00;22.67;;;;;13.77;69.92;101969.16;5035837;28;45334;-68
2023/05/20 01:39:45;;;;;;;;;24.00;22.33;;;;;13.86;69.80;101987.53;5036275;28;45356;-68
2023/05/20 01:42:12;;;;;;;;;27.67;26.00;;;;;13.84;70.17;101991.97;5035706;28;46039;-68
2023/05/20 01:44:38;;;;;;;;;24.33;21.00;;;;;13.74;70.59;101977.16;5035460;28;45422;-69
2023/05/20 01:47:03;;;;;;;;;27.00;25.33;;;;;13.78;70.73;101983.25;5035783;27;45342;-68
2023/05/20 01:49:29;;;;;;;;;26.67;21.33;;;;;13.81;70.41;101991.13;5035921;28;45302;-69
2023/05/20 01:51:55;;;;;;;;;32.00;29.00;;;;;13.79;70.66;101977.06;5035803;28;45640;-69
2023/05/20 01:54:20;;;;;;;;;29.67;25.33;;;;;13.73;71.02;101967.44;5035730;28;45439;-69
2023/05/20 01:56:46;;;;;;;;;33.00;26.67;;;;;13.68;70.37;101958.69;5035654;28;45252;-69
2023/05/20 01:59:12;;;;;;;;;26.33;26.33;;;;;13.69;70.87;101960.44;5035849;28;45421;-69
2023/05/20 02:01:37;;;;;;;;;29.33;27.33;;;;;13.61;70.78;101943.81;5035427;28;47279;-69
2023/05/20 02:04:02;;;;;;;;;30.67;24.67;;;;;13.63;71.43;101942.91;5035560;28;45327;-69
2023/05/20 02:06:28;;;;;;;;;27.33;25.00;;;;;13.71;71.19;101966.63;5035928;28;45423;-69
2023/05/20 02:08:53;;;;;;;;;40.33;29.67;;;;;13.69;71.48;101968.41;5035525;28;45459;-69
2023/05/20 02:11:18;;;;;;;;;31.00;26.67;;;;;13.72;71.39;101966.59;5035524;27;45318;-69
2023/05/20 02:13:44;;;;;;;;;27.00;23.67;;;;;13.68;71.99;101967.53;5035358;28;45419;-69
2023/05/20 02:16:09;;;;;;;;;31.00;26.00;;;;;13.73;71.65;101970.09;5035311;28;45615;-69
2023/05/20 02:18:35;;;;;;;;;31.33;26.67;;;;;13.43;71.55;101918.53;5035680;28;45363;-68
2023/05/20 02:21:04;;;;;;;;;27.67;27.67;;;;;13.72;71.44;101973.63;5035366;28;46400;-68
2023/05/20 02:23:30;;;;;;;;;30.33;29.00;;;;;13.63;71.72;101952.63;5035393;28;45479;-68
2023/05/20 02:25:56;;;;;;;;;22.67;19.67;;;;;13.66;72.10;101958.72;5035320;28;45296;-68
2023/05/20 02:28:21;;;;;;;;;29.67;25.33;;;;;13.68;72.29;101967.53;5035053;28;45362;-69
2023/05/20 02:30:47;;;;;;;;;23.00;19.33;;;;;13.67;72.09;101970.19;5015291;28;45443;-68
2023/05/20 02:33:12;;;;;;;;;26.67;25.33;;;;;13.65;72.19;101967.59;5015275;28;45259;-69
2023/05/20 02:35:38;;;;;;;;;32.00;27.00;;;;;13.63;72.43;101958.78;5015507;28;45404;-69
2023/05/20 02:38:04;;;;;;;;;27.67;24.00;;;;;13.60;72.34;101965.91;5015432;28;45492;-68
2023/05/20 02:40:29;;;;;;;;;29.67;21.33;;;;;13.61;72.61;101963.22;5015014;28;47030;-68
2023/05/20 02:42:55;;;;;;;;;27.67;24.33;;;;;13.62;72.48;101970.25;5015131;28;45235;-68
2023/05/20 02:45:20;;;;;;;;;31.67;27.33;;;;;13.58;72.34;101960.63;5015172;27;45440;-69
2023/05/20 02:47:46;;;;;;;;;25.67;23.67;;;;;13.53;72.39;101952.75;5035575;28;45514;-69
2023/05/20 02:50:11;;;;;;;;;22.67;22.00;;;;;13.60;72.21;101953.53;5035052;28;45645;-68
2023/05/20 02:52:36;;;;;;;;;21.67;19.67;;;;;13.56;72.14;101949.19;5035027;28;45204;-68
2023/05/20 02:55:02;;;;;;;;;26.33;23.67;;;;;13.53;72.40;101946.59;5035175;28;45545;-68
2023/05/20 02:57:28;;;;;;;;;31.33;28.33;;;;;13.53;71.92;101951.88;5035175;27;45413;-68
2023/05/20 02:59:54;;;;;;;;;30.00;21.00;;;;;13.49;72.38;101951.06;5034766;27;46853;-69
2023/05/20 03:02:20;;;;;;;;;27.00;25.00;;;;;13.43;72.52;101934.41;5034949;28;45462;-68
2023/05/20 03:04:46;;;;;;;;;24.33;24.33;;;;;13.49;72.38;101935.19;5034996;28;45304;-68
2023/05/20 03:07:11;;;;;;;;;29.67;26.67;;;;;13.52;72.14;101947.47;5034903;28;45721;-68
2023/05/20 03:09:36;;;;;;;;;27.33;25.00;;;;;13.46;72.38;101940.50;5034588;28;45904;-69
2023/05/20 03:12:02;;;;;;;;;28.00;23.67;;;;;13.50;71.97;101951.94;5034904;28;45333;-69
2023/05/20 03:14:28;;;;;;;;;26.67;23.33;;;;;13.43;72.37;101937.06;5034894;27;45307;-69
2023/05/20 03:16:56;;;;;;;;;22.00;22.00;;;;;13.43;72.22;101937.06;5035037;27;45400;-68
2023/05/20 03:19:21;;;;;;;;;28.33;19.33;;;;;13.44;71.67;101938.81;5034615;28;46277;-69
2023/05/20 03:21:47;;;;;;;;;24.67;24.00;;;;;13.41;71.79;101935.28;5033808;27;45251;-69
2023/05/20 03:24:12;;;;;;;;;25.67;21.00;;;;;13.40;71.89;101933.56;5034929;28;45222;-69
2023/05/20 03:26:41;;;;;;;;;26.33;24.00;;;;;13.44;71.25;101934.38;5035029;27;45367;-68
2023/05/20 03:29:07;;;;;;;;;27.00;21.67;;;;;13.46;71.53;101943.16;5034492;28;47653;-68
2023/05/20 03:31:33;;;;;;;;;19.67;19.67;;;;;13.41;71.39;101943.22;5034565;27;45322;-68
2023/05/20 03:33:58;;;;;;;;;21.00;20.33;;;;;13.33;71.03;101923.94;5034546;28;45398;-68
2023/05/20 03:36:24;;;;;;;;;23.67;21.00;;;;;13.31;70.49;101924.84;5029958;27;45314;-68
2023/05/20 03:38:49;;;;;;;;;23.33;20.00;;;;;13.39;70.93;101942.41;5021925;27;47211;-68
2023/05/20 03:41:14;;;;;;;;;23.67;21.00;;;;;13.37;70.11;101935.38;5017835;28;45387;-69
2023/05/20 03:43:40;;;;;;;;;23.00;20.67;;;;;13.44;70.50;101947.59;5014452;28;45565;-69
2023/05/20 03:46:05;;;;;;;;;23.33;20.67;;;;;13.43;69.79;101931.75;5014393;27;45439;-68
2023/05/20 03:48:30;;;;;;;;;19.67;18.00;;;;;13.20;69.72;101901.19;5014469;27;45427;-68
2023/05/20 03:50:56;;;;;;;;;22.00;16.67;;;;;13.44;69.73;101941.47;5014403;28;45264;-68
2023/05/20 03:53:21;;;;;;;;;26.00;23.00;;;;;13.42;69.65;101936.19;5014496;28;45863;-68
2023/05/20 03:55:47;;;;;;;;;22.33;17.67;;;;;13.40;69.14;101933.56;5014583;27;45167;-68
2023/05/20 03:58:14;;;;;;;;;22.33;19.67;;;;;13.39;68.99;101929.16;5014085;27;46400;-68
2023/05/20 04:00:39;;;;;;;;;19.67;19.67;;;;;13.43;68.86;101926.47;5014205;28;45447;-68
2023/05/20 04:03:05;;;;;;;;;18.00;16.00;;;;;13.46;68.41;101931.72;5014258;28;45429;-68
2023/05/20 04:05:31;;;;;;;;;23.33;19.67;;;;;13.49;68.74;101929.00;5014538;27;45452;-68
2023/05/20 04:07:56;;;;;;;;;19.67;17.67;;;;;13.50;68.09;101938.72;5014035;27;47364;-68
2023/05/20 04:10:22;;;;;;;;;19.67;17.67;;;;;13.50;67.65;101936.06;5013996;28;45338;-68
2023/05/20 04:12:48;;;;;;;;;22.00;18.00;;;;;13.49;67.92;101929.91;5014398;27;45776;-68
2023/05/20 04:15:14;;;;;;;;;21.00;17.67;;;;;13.46;67.81;101921.13;5014028;27;45340;-68
2023/05/20 04:17:40;;;;;;;;;16.00;15.00;;;;;13.51;67.84;101922.81;5013965;28;45446;-68
2023/05/20 04:20:07;;;;;;;;;17.33;13.33;;;;;13.52;66.96;101934.25;5013920;27;45339;-68
2023/05/20 04:22:33;;;;;;;;;15.33;15.33;;;;;13.52;66.94;101935.13;5013808;28;45279;-68
2023/05/20 04:24:59;;;;;;;;;18.00;17.00;;;;;13.57;66.84;101940.34;5014142;28;45376;-68
2023/05/20 04:27:24;;;;;;;;;17.33;14.67;;;;;13.49;66.44;101929.91;5013582;27;46501;-68
2023/05/20 04:29:51;;;;;;;;;19.67;17.67;;;;;13.56;66.66;101936.84;5013753;27;45365;-68
2023/05/20 04:32:17;;;;;;;;;17.33;14.33;;;;;13.59;66.52;101935.91;5014172;28;45304;-68
2023/05/20 04:34:44;;;;;;;;;19.00;16.67;;;;;13.57;66.33;101927.13;5017159;28;45488;-69
2023/05/20 04:37:09;;;;;;;;;16.67;15.67;;;;;13.64;66.15;101944.66;5016732;27;45786;-69
2023/05/20 04:39:35;;;;;;;;;19.67;16.00;;;;;13.67;66.09;101941.09;5016841;27;45237;-69
2023/05/20 04:42:01;;;;;;;;;21.00;16.67;;;;;13.64;66.16;101935.84;5016806;28;45335;-68
2023/05/20 04:44:28;;;;;;;;;18.33;17.33;;;;;13.64;65.99;101934.06;5017017;27;45220;-68
2023/05/20 04:46:55;;;;;;;;;18.00;15.00;;;;;13.70;65.92;101935.75;5016338;27;45926;-69
2023/05/20 04:49:20;;;;;;;;;16.00;16.00;;;;;13.74;65.49;101940.94;5016713;27;45391;-69
2023/05/20 04:51:48;;;;;;;;;16.67;14.00;;;;;13.56;65.58;101902.44;5016681;28;45284;-68
2023/05/20 04:54:16;;;;;;;;;18.33;17.67;;;;;13.77;64.99;101934.75;5016902;28;45431;-68
2023/05/20 04:56:43;;;;;;;;;20.33;16.67;;;;;13.79;64.89;101940.00;5016374;27;47426;-68
2023/05/20 04:59:09;;;;;;;;;19.33;15.33;;;;;13.86;65.09;101939.00;5016234;28;45360;-68
2023/05/20 05:01:35;;;;;;;;;15.33;14.00;;;;;13.82;64.44;101916.13;5016691;27;45278;-68
2023/05/20 05:04:01;;;;;;;;;16.00;14.00;;;;;14.12;64.32;101935.03;5016593;28;45635;-67
2023/05/20 05:06:27;;;;;;;;;18.67;16.00;;;;;15.05;62.02;101926.94;5016267;27;45406;-67
2023/05/20 05:08:52;;;;;;;;;19.33;14.67;;;;;15.13;60.76;101927.66;5016461;27;45352;-68
2023/05/20 05:11:18;;;;;;;;;13.67;13.67;;;;;14.96;60.35;101905.94;5016493;27;45309;-68
2023/05/20 05:13:43;;;;;;;;;12.67;12.67;;;;;15.04;60.54;101925.19;5016765;28;45396;-68
2023/05/20 05:16:08;;;;;;;;;21.33;17.00;;;;;14.85;60.95;101908.81;5016042;28;46506;-68
2023/05/20 05:18:34;;;;;;;;;16.33;14.33;;;;;14.75;60.91;101908.16;5016168;28;45163;-68
2023/05/20 05:21:01;;;;;;;;;15.00;15.00;;;;;14.73;60.98;101925.00;5016591;27;45380;-68
2023/05/20 05:23:26;;;;;;;;;15.00;15.00;;;;;14.61;60.87;101921.72;5016473;27;45153;-68
2023/05/20 05:25:52;;;;;;;;;15.33;14.00;;;;;14.51;61.06;101916.56;5016261;27;46040;-68
2023/05/20 05:28:17;;;;;;;;;15.67;13.33;;;;;14.54;60.77;101935.97;5016162;28;45258;-68
2023/05/20 05:30:43;;;;;;;;;17.00;15.67;;;;;14.49;61.45;101918.41;5016138;27;45418;-68
2023/05/20 05:33:08;;;;;;;;;12.67;11.33;;;;;14.51;61.18;101929.81;5016491;28;45384;-68
2023/05/20 05:35:33;;;;;;;;;17.67;14.67;;;;;14.47;61.38;101926.38;5015978;28;46460;-68
2023/05/20 05:37:59;;;;;;;;;16.33;13.67;;;;;14.38;60.87;101916.84;5016140;27;45406;-68
2023/05/20 05:40:24;;;;;;;;;13.00;13.00;;;;;14.50;61.18;101933.41;5016110;27;45368;-67
2023/05/20 05:42:50;;;;;;;;;10.67;10.33;;;;;14.48;60.98;101920.19;5015801;28;45355;-68
2023/05/20 05:45:15;;;;;;;;;14.33;13.67;;;;;14.63;60.70;101924.31;5015846;28;46399;-68
2023/05/20 05:47:41;;;;;;;;;8.00;6.00;;;;;14.73;60.36;101912.63;5015713;28;45255;-68
2023/05/20 05:50:07;;;;;;;;;14.00;13.00;;;;;14.75;60.06;101899.34;5016092;28;45290;-68
2023/05/20 05:52:32;;;;;;;;;17.00;16.00;;;;;14.95;59.83;101926.28;5016159;27;45390;-68
2023/05/20 05:54:58;;;;;;;;;13.00;12.00;;;;;15.02;59.44;101928.81;5015789;28;45385;-68
2023/05/20 05:57:23;;;;;;;;;16.00;16.00;;;;;14.93;59.50;101898.06;5015857;28;45426;-68
2023/05/20 05:59:50;;;;;;;;;13.00;13.00;;;;;15.15;58.87;101920.53;5015833;28;45403;-68
2023/05/20 06:02:16;;;;;;;;;12.33;12.33;;;;;15.15;58.82;101904.59;5016002;27;45205;-68
2023/05/20 06:04:41;;;;;;;;;17.33;14.33;;;;;15.18;58.36;101887.75;5015083;28;45548;-68
2023/05/20 06:07:07;;;;;;;;;16.00;14.67;;;;;15.36;58.10;101912.09;5015589;28;45330;-68
2023/05/20 06:09:32;;;;;;;;;15.00;11.67;;;;;15.29;58.01;101900.75;5015946;28;45838;-68
2023/05/20 06:11:57;;;;;;;;;11.33;9.33;;;;;15.32;58.29;101919.25;5016000;28;45261;-68
2023/05/20 06:14:23;;;;;;;;;13.00;13.00;;;;;15.23;57.71;101901.75;5015621;28;47387;-68
2023/05/20 06:16:48;;;;;;;;;16.67;12.67;;;;;15.31;58.39;101915.72;5015560;27;45222;-68
2023/05/20 06:19:13;;;;;;;;;17.00;15.67;;;;;15.26;58.19;101919.41;5015642;27;45226;-68
2023/05/20 06:21:39;;;;;;;;;11.33;11.00;;;;;15.32;58.22;101916.59;5015837;28;45234;-67
2023/05/20 06:24:04;;;;;;;;;14.00;12.33;;;;;15.32;57.88;101917.50;5015412;28;46138;-67
2023/05/20 06:26:30;;;;;;;;;14.67;11.67;;;;;15.31;57.53;101918.38;5015623;28;45402;-68
2023/05/20 06:28:56;;;;;;;;;10.67;10.67;;;;;15.27;57.90;101910.53;5015547;28;45380;-67
2023/05/20 06:31:21;;;;;;;;;13.67;13.67;;;;;15.35;57.97;101907.69;5015396;28;45551;-67
2023/05/20 06:33:46;;;;;;;;;14.33;13.67;;;;;15.32;57.23;101896.25;5015347;27;47223;-67
2023/05/20 06:36:12;;;;;;;;;17.33;13.67;;;;;15.26;57.44;101892.88;5015263;28;45835;-68
2023/05/20 06:38:37;;;;;;;;;14.00;13.33;;;;;15.39;57.44;101901.41;5015489;28;45297;-68
2023/05/20 06:41:03;;;;;;;;;17.67;16.33;;;;;15.41;57.63;101896.91;5015559;28;45378;-68
2023/05/20 06:43:28;;;;;;;;;12.00;11.00;;;;;15.40;57.31;101884.59;5015050;28;46595;-68
2023/05/20 06:45:53;;;;;;;;;15.33;13.33;;;;;15.52;57.00;101891.38;5014940;27;45359;-68
2023/05/20 06:48:19;;;;;;;;;19.00;14.33;;;;;15.46;56.80;101885.28;5015425;28;45286;-68
2023/05/20 06:50:44;;;;;;;;;21.67;19.67;;;;;15.50;56.27;101878.13;5015670;27;45342;-68
2023/05/20 06:53:09;;;;;;;;;13.33;11.67;;;;;15.66;56.32;101886.59;5015046;28;46624;-68
2023/05/20 06:55:37;;;;;;;;;12.67;11.00;;;;;15.66;56.45;101876.81;5013966;28;45506;-68
2023/05/20 06:58:02;;;;;;;;;12.00;12.00;;;;;15.77;56.31;101880.97;5015007;28;45390;-68
2023/05/20 07:00:27;;;;;;;;;17.00;11.00;;;;;16.15;55.11;101885.31;5015131;28;45246;-68
2023/05/20 07:02:53;;;;;;;;;13.00;13.00;;;;;16.52;54.92;101878.06;5014873;27;45470;-67
2023/05/20 07:05:18;;;;;;;;;13.33;12.00;;;;;16.68;54.01;101873.16;5015007;28;45369;-68
2023/05/20 07:07:44;;;;;;;;;16.33;13.33;;;;;16.82;53.38;101862.97;5015251;27;45602;-68
2023/05/20 07:10:09;;;;;;;;;15.67;13.00;;;;;16.93;53.46;101870.63;5015121;28;45422;-68
2023/05/20 07:12:35;;;;;;;;;13.00;11.67;;;;;17.11;52.60;101878.94;5014843;27;45477;-68
2023/05/20 07:15:00;;;;;;;;;11.67;10.33;;;;;17.33;52.52;101876.47;5014929;28;45323;-69
2023/05/20 07:17:28;;;;;;;;;21.00;11.33;;;;;17.49;51.94;101879.50;5014630;28;45368;-69
2023/05/20 07:19:54;;;;;;;;;9.67;9.67;;;;;17.63;51.71;101876.34;5015061;28;45504;-68
2023/05/20 07:22:19;;;;;;;;;13.67;12.33;;;;;17.46;51.51;101868.97;5014709;28;45220;-68
2023/05/20 07:24:44;;;;;;;;;12.33;9.67;;;;;17.42;52.33;101872.63;5014628;28;45561;-66
2023/05/20 07:27:10;;;;;;;;;16.33;13.33;;;;;17.34;51.62;101867.53;5014775;28;45302;-68
2023/05/20 07:29:35;;;;;;;;;17.00;13.33;;;;;17.25;51.82;101871.38;5015082;27;45511;-68
2023/05/20 07:32:02;;;;;;;;;10.67;10.00;;;;;17.20;52.10;101863.56;5014335;28;46053;-68
2023/05/20 07:34:27;;;;;;;;;16.33;12.00;;;;;17.26;51.94;101867.81;5014238;28;45263;-68
2023/05/20 07:36:53;;;;;;;;;15.00;13.67;;;;;17.42;51.83;101878.81;5014633;28;45383;-68
2023/05/20 07:39:18;;;;;;;;;17.33;12.33;;;;;17.90;50.84;101851.44;5014901;28;45300;-68
2023/05/20 07:41:44;;;;;;;;;15.67;10.67;;;;;18.08;50.00;101859.69;5014384;28;46256;-68
2023/05/20 07:44:11;;;;;;;;;14.67;10.00;;;;;18.03;50.27;101867.84;5014266;28;45568;-68
2023/05/20 07:46:37;;;;;;;;;12.67;11.00;;;;;18.04;49.83;101852.75;5013805;27;45488;-67
2023/05/20 07:49:03;;;;;;;;;11.67;10.67;;;;;18.07;49.79;101866.81;5014251;28;45257;-67
2023/05/20 07:51:28;;;;;;;;;12.33;12.33;;;;;17.99;50.65;101855.56;5014531;28;45505;-67
2023/05/20 07:53:54;;;;;;;;;14.67;12.67;;;;;18.06;49.86;101866.88;5014314;27;45383;-67
2023/05/20 07:56:20;;;;;;;;;11.67;11.67;;;;;17.95;50.07;101847.75;5014307;28;45438;-67
2023/05/20 07:58:52;;;;;;;;;13.67;12.67;;;;;18.02;50.08;101851.94;5014592;28;45367;-67
2023/05/20 08:01:17;;;;;;;;;7.67;6.00;;;;;18.09;50.22;101850.78;5013935;28;46031;-67
2023/05/20 08:03:43;;;;;;;;;10.33;10.33;;;;;18.14;49.17;101851.50;5014218;27;45396;-68
2023/05/20 08:06:08;;;;;;;;;13.33;13.33;;;;;18.08;50.35;101852.59;5014453;28;45490;-68
2023/05/20 08:08:35;;;;;;;;;14.33;10.00;;;;;18.04;50.28;101842.97;5017307;27;45406;-68
2023/05/20 08:11:00;;;;;;;;;12.33;11.33;;;;;18.32;49.90;101833.94;5016686;28;47147;-68
2023/05/20 08:13:26;;;;;;;;;13.00;11.67;;;;;19.79;48.17;101850.28;5016845;28;45582;-67
2023/05/20 08:15:53;;;;;;;;;13.33;11.33;;;;;21.10;45.55;101845.13;5016884;28;45846;-67
2023/05/20 08:18:18;;;;;;;;;14.00;12.67;;;;;21.15;44.65;101856.50;5017005;28;45312;-67
2023/05/20 08:20:44;;;;;;;;;15.33;13.67;;;;;20.85;44.80;101844.56;5016935;27;45573;-67
2023/05/20 08:23:09;;;;;;;;;13.67;11.00;;;;;20.93;44.91;101854.88;5017117;27;45444;-67
2023/05/20 08:25:35;;;;;;;;;12.33;11.00;;;;;21.07;44.23;101832.75;5017127;28;45430;-67
2023/05/20 08:28:02;;;;;;;;;10.67;9.00;;;;;21.45;44.22;101855.88;5017009;28;45494;-67
2023/05/20 08:30:29;;;;;;;;;9.00;9.00;;;;;21.65;43.55;101853.09;5016907;28;45371;-67
2023/05/20 08:32:55;;;;;;;;;13.00;11.67;;;;;21.58;42.54;101843.66;5016493;28;45257;-67
2023/05/20 08:35:20;;;;;;;;;14.33;10.67;;;;;21.02;44.11;101819.59;5016759;28;45399;-67
2023/05/20 08:37:45;;;;;;;;;13.33;11.67;;;;;20.89;43.68;101831.00;5016839;28;45348;-67
2023/05/20 08:40:11;;;;;;;;;13.00;12.00;;;;;20.70;44.59;101835.44;5016487;28;45250;-67
2023/05/20 08:42:42;;;;;;;;;11.67;10.00;;;;;20.51;44.90;101840.75;5016809;28;45500;-67
2023/05/20 08:45:12;;;;;;;;;16.00;10.67;;;;;20.62;44.55;101842.06;5016907;28;45453;-67
2023/05/20 08:47:41;;;;;;;;;9.67;9.33;;;;;20.85;44.15;101847.22;5016485;27;45326;-67
2023/05/20 08:50:08;;;;;;;;;13.00;12.00;;;;;20.72;43.83;101826.47;5016375;28;47322;-67
2023/05/20 08:52:37;;;;;;;;;12.67;8.67;;;;;20.56;44.22;101827.16;5016651;27;45451;-68
2023/05/20 08:55:06;;;;;;;;;13.67;10.00;;;;;20.31;43.99;101822.97;5016797;28;45296;-68
2023/05/20 08:57:33;;;;;;;;;13.67;12.67;;;;;20.20;44.29;101819.06;5016423;28;45401;-67
2023/05/20 08:59:58;;;;;;;;;13.33;9.33;;;;;20.07;45.57;101802.69;5016090;28;45550;-67
2023/05/20 09:02:24;;;;;;;;;10.67;8.33;;;;;20.01;44.73;101795.81;5016224;28;45374;-67
2023/05/20 09:04:51;;;;;;;;;9.33;9.33;;;;;20.07;45.02;101818.75;4998858;28;45519;-67
2023/05/20 09:07:27;;;;;;;;;13.33;11.00;;;;;20.14;44.92;101813.06;5016564;28;45250;-67
2023/05/20 09:09:53;;;;;;;;;9.00;9.00;;;;;20.31;44.85;101803.38;5016318;28;45232;-67
2023/05/20 09:12:20;;;;;;;;;9.33;9.33;;;;;20.49;44.32;101805.19;5016212;28;45312;-68
2023/05/20 09:14:45;;;;;;;;;12.33;11.33;;;;;20.57;42.69;101795.94;5016517;28;45526;-68
2023/05/20 09:17:12;;;;;;;;;8.00;8.00;;;;;20.70;43.46;101802.47;5016354;27;45345;-68
2023/05/20 09:19:37;;;;;;;;;9.00;9.00;;;;;20.70;43.77;101799.78;5015520;27;46499;-67
2023/05/20 09:22:04;;;;;;;;;9.67;7.33;;;;;20.90;43.29;101803.28;5016142;28;45327;-68
2023/05/20 09:24:29;;;;;;;;;13.00;10.00;;;;;20.78;42.63;101802.06;5016214;28;45436;-67
2023/05/20 09:26:55;;;;;;;;;11.00;9.00;;;;;20.75;43.25;101796.88;5016341;28;45792;-67
2023/05/20 09:29:20;;;;;;;;;8.67;6.33;;;;;20.67;43.02;101787.41;5016076;28;47231;-67
2023/05/20 09:31:46;;;;;;;;;10.00;8.33;;;;;20.72;42.23;101792.53;5015969;27;45396;-68
2023/05/20 09:34:12;;;;;;;;;13.33;8.67;;;;;20.82;42.66;101785.78;5016252;28;45288;-68
2023/05/20 09:36:39;;;;;;;;;10.00;8.00;;;;;21.20;43.03;101779.44;5016302;28;45232;-68
2023/05/20 09:39:08;;;;;;;;;14.33;9.67;;;;;21.52;41.68;101782.31;5015848;28;46567;-67
2023/05/20 09:42:05;;;;;;;;;7.33;7.33;;;;;22.24;40.79;101778.41;5015906;28;45349;-67
2023/05/20 09:44:33;;;;;;;;;10.33;10.00;;;;;22.75;40.45;101770.19;5016191;27;45243;-68
2023/05/20 09:46:59;;;;;;;;;9.67;9.67;;;;;23.71;39.57;101774.44;5015795;27;45392;-68
2023/05/20 09:49:26;;;;;;;;;9.00;8.67;;;;;25.11;37.44;101757.34;5015555;27;46315;-68
2023/05/20 09:51:52;;;;;;;;;8.00;8.00;;;;;26.99;35.14;101756.50;5015609;27;45327;-68
2023/05/20 09:54:18;;;;;;;;;9.00;8.33;;;;;28.99;34.28;101760.41;5015995;27;45494;-69
2023/05/20 09:56:45;;;;;;;;;8.67;7.33;;;;;30.65;31.27;101765.75;5016045;28;45296;-69
2023/05/20 09:59:15;;;;;;;;;12.00;12.00;;;;;30.66;29.14;101768.34;5015798;28;45464;-69
2023/05/20 10:01:41;;;;;;;;;8.00;8.00;;;;;31.07;29.79;101762.78;5015307;28;45535;-69
2023/05/20 10:04:08;;;;;;;;;10.00;8.67;;;;;32.03;27.55;101759.91;5015738;28;45363;-69
2023/05/20 10:07:10;;;;;;;;;8.67;8.67;;;;;33.56;27.34;101760.84;5015767;28;45403;-69
2023/05/20 10:09:55;;;;;;;;;9.00;9.00;;;;;34.62;26.39;101754.09;5015507;28;45462;-69
2023/05/20 10:12:51;;;;;;;;;9.33;7.00;;;;;35.13;27.98;101759.44;5015299;28;45399;-69
2023/05/20 10:15:39;;;;;;;;;11.67;8.67;;;;;34.99;24.58;101752.78;5015779;28;45332;-70
2023/05/20 10:18:23;;;;;;;;;7.00;5.33;;;;;34.62;25.96;101745.03;4954407;28;45547;-69
2023/05/20 10:20:50;;;;;;;;;10.67;8.33;;;;;33.73;23.30;101741.84;4954664;28;45342;-69
2023/05/20 10:23:27;;;;;;;;;9.00;7.33;;;;;33.08;24.50;101740.38;4954638;28;45517;-69
2023/05/20 10:25:54;;;;;;;;;10.33;10.33;;;;;32.68;24.14;101734.44;4954870;28;45355;-69
2023/05/20 10:28:37;;;;;;;;;10.00;10.00;;;;;32.32;25.73;101733.53;4954876;28;45455;-69
2023/05/20 10:31:14;;;;;;;;;9.00;9.00;;;;;32.08;25.78;101743.09;4954366;28;46123;-69
2023/05/20 10:33:43;;;;;;;;;9.67;8.67;;;;;32.15;25.66;101727.03;4954230;28;45341;-69
2023/05/20 10:36:10;;;;;;;;;8.33;7.00;;;;;32.56;24.66;101733.78;4954571;28;45411;-69
2023/05/20 10:38:35;;;;;;;;;7.00;7.00;;;;;33.25;23.84;101727.75;4954756;28;45485;-69
2023/05/20 10:41:10;;;;;;;;;8.00;8.00;;;;;33.96;24.52;101723.00;4953857;28;46505;-69
2023/05/20 10:43:35;;;;;;;;;7.00;7.00;;;;;34.49;23.10;101734.59;4962005;28;45319;-68
2023/05/20 10:46:01;;;;;;;;;10.67;8.00;;;;;34.10;23.16;101727.84;4973870;28;45499;-70
2023/05/20 10:48:31;;;;;;;;;11.00;9.67;;;;;33.23;23.37;101719.72;4973499;28;45405;-70
2023/05/20 10:51:03;;;;;;;;;8.00;8.00;;;;;32.59;23.78;101722.56;4973415;28;46398;-70
2023/05/20 10:53:37;;;;;;;;;10.33;9.00;;;;;32.23;23.98;101727.16;4973012;28;45365;-71
2023/05/20 10:56:02;;;;;;;;;8.67;8.67;;;;;31.85;24.53;101719.00;4991741;28;45383;-71
2023/05/20 10:58:36;;;;;;;;;7.00;7.00;;;;;31.42;25.28;101709.56;4995230;28;45349;-72
2023/05/20 11:01:02;;;;;;;;;50.25;42.75;;;;;30.69;25.04;101700.06;4995174;28;45690;-72
2023/05/20 11:03:28;;;;;;;;;8.00;8.00;;;;;30.18;26.36;101698.44;4994997;28;45350;-72
2023/05/20 11:05:54;;;;;;;;;12.00;10.33;;;;;29.88;25.82;101708.38;4995345;28;45438;-71
2023/05/20 11:08:19;;;;;;;;;12.00;9.00;;;;;29.27;26.20;101692.94;4995545;28;45313;-71
2023/05/20 11:10:44;;;;;;;;;10.00;7.33;;;;;28.56;27.35;101667.28;4994855;28;46374;-71